Helmetta, New Jersey
Current Conditions -  °F | °C
As of 11:55 AM on Wednesday 22 Oct 2014 (Local Time) from KLDJ Reporting Station
Drizzle Drizzle  
Wind Chill: 59°   Ceiling: 1800
Heat Index: 59°   Visibility: 7mi
Dew Point: 55°   Wind: 13mph
Humidity: 86%   Direction: 40°NE
Pressure: 29.93"   Gusts: 18mph
Location:  40.38°N, 74.42°W
Report Text: KLDJ 221555Z AUTO 04011G16KT 7SM DZ OVC018 15/13 A2993 RMK AO2 T01490125
Loading
Personal Weather Stations






























Interactive Weather Map
Tropical Storm Tracking
New forecast layout! Learn more

10-Day Weather Forecast

Advertisements
Track Severe Weather on mobile